Bremen, IN

9:19 PM EDT on April 30, 2017 (GMT -0400)
Bremen, IN | | Change Station

Elev 823 ft 41.44 °N, 86.16 °W | Updated 9 seconds ago

Overcast
Overcast
63.7 °F
Feels Like 63.7 °F
N
5.0
Wind Variable Wind from ENE
Gusts 39.0 mph

Today
High -- | Low -- °F
--% Chance of Precip.
Yesterday
High -- | Low -- °F
Precip. -- in
Pressure 29.71 in
Visibility 10.0 miles
Clouds Few 700 ft
Mostly Cloudy 2200 ft
Overcast 12000 ft
Dew Point 62 °F
Humidity 96%
Rainfall 0.46 in
Snow Depth Not available.
6:42 AM 8:41 PM
Waxing Crescent, 28% visible
SPECI KGSH 010110Z AUTO 13004KT 10SM -RA FEW007 BKN022 OVC120 18/16 A2971 RMK AO2 P0000 T01780161
Pressure 29.71 in
Visibility 10.0 miles
Clouds Few 700 ft
Mostly Cloudy 2200 ft
Overcast 12000 ft
Dew Point 62 °F
Humidity 96%
Rainfall 0.46 in
Snow Depth Not available.
6:42 AM 8:41 PM
Waxing Crescent, 28% visible
SPECI KGSH 010110Z AUTO 13004KT 10SM -RA FEW007 BKN022 OVC120 18/16 A2971 RMK AO2 P0000 T01780161

Get Severe Weather Alerts

Thanks for signing up!

Be on the lookout for a verification email in your inbox.

You'll start receiving the daily forecast at 8 AM.

×

10-Day Weather Forecast

Almanac

Astronomy

Apr. 30, 2017 Rise Set
Actual Time
Civil Twilight
Nautical Twilight
Astronomical Twilight
Moon
Length of Visible Light
Length of Day
Tomorrow will be .
, % of the Moon is Illuminated

Today's Extremes

State Highs State Lows

Community

WunderPhotos

WunderBlog® & News

Nearby

Air Quality

  Air Quality AQ Index Pollutant
Not available.

Snow Depth

Station Depth Elevation

Earthquake Activity

City Distance Mag. Time & Date
Minimum magnitude displayed is 2.5.

Coastal Water Temperatures

Place Temperature

Stations

Nearby Weather Stations

Station Location Temp. Windchill Dew Point Humidity Wind Precip. Elev Updated Type
                   

Watches & Warnings

There are currently no watches in effect.